Oberon — SKJF — position and weather

sailwx.info

Track history (hours):
 
Tides and Currents Weather Stations Pressure Air Temp Water Temp Dewpoint Dewpoint Depression Visibility Wind Speed Wind Dir Waves Ship Positions

Oberon

Last reported at 2016-Apr-17 23:10 UTC. Time now 2016-Apr-29 23:33 UTC.
Position N 13°44' W 017°49'.
Warning: this ship's position is 12 days out of date.

Length 232 m; draft 9.8 m.

Type: Cargo ship. MMSI: 266283000.

Date/timePositionNaut miles runAvg speedWind from/ knotsBaromVisibWave heightAir tempDewpointWater temp
2016-Apr-17 23:10N 13°44' W 017°49'1317.4
2016-Apr-17 22:24N 13°57' W 017°50'6617.2
2016-Apr-17 18:34N 15°03' W 017°53'1817.6
2016-Apr-17 17:34N 15°21' W 017°54'1717.4
2016-Apr-17 16:33N 15°38' W 017°55'72617.2
2016-Apr-15 22:18N 27°39' W 016°24'4916.4
2016-Apr-15 19:18N 28°23' W 015°58'1317.1
2016-Apr-15 18:33N 28°33' W 015°49'1616.4
2016-Apr-15 17:33N 28°48' W 015°41'1716.6
2016-Apr-15 16:33N 29°04' W 015°37'1716.3
2016-Apr-15 15:32N 29°20' W 015°31'1716.7
2016-Apr-15 14:33N 29°35' W 015°25'1816.8
2016-Apr-15 13:30N 29°52' W 015°19'1616.4
2016-Apr-15 12:31N 30°08' W 015°14'  
2016-Apr-12 20:28N 43°50' W 006°25'1516.5
2016-Apr-12 19:33N 43°48' W 006°05'2016.6
2016-Apr-12 18:22N 43°46' W 005°37'1316.4
2016-Apr-12 17:33N 43°44' W 005°19'1616.3
2016-Apr-12 16:33N 43°42' W 004°57'352 9.8
2016-Apr-11 04:31N 49°33' W 004°13'1819.1
2016-Apr-11 03:33N 49°42' W 003°48'2020.2
2016-Apr-11 02:33N 49°52' W 003°21'2019.9
2016-Apr-11 01:33N 50°01' W 002°53'6616.4
2016-Apr-10 21:33N 50°27' W 001°19'1514.7
2016-Apr-10 20:33N 50°35' W 000°60'1010.2
2016-Apr-10 19:33N 50°45' W 001°06'1111.1
2016-Apr-10 18:33N 50°51' W 001°20'3 3.3
2016-Apr-10 17:33N 50°53' W 001°24'0 0.0
2016-Apr-10 16:31N 50°53' W 001°24'0 0.0
2016-Apr-10 15:31N 50°53' W 001°24'0 0.0
2016-Apr-10 14:31N 50°53' W 001°24'0 0.0
2016-Apr-10 13:31N 50°53' W 001°24'0 0.0
2016-Apr-10 12:31N 50°53' W 001°24'0 0.0
2016-Apr-10 11:31N 50°53' W 001°24'0 0.0
2016-Apr-10 10:31N 50°53' W 001°24'0 0.0
2016-Apr-10 09:31N 50°53' W 001°24'0 0.0
2016-Apr-10 08:31N 50°53' W 001°24'0 0.0
2016-Apr-10 07:31N 50°53' W 001°24'0 0.0
2016-Apr-10 06:31N 50°53' W 001°24'0 0.0
2016-Apr-10 05:31N 50°53' W 001°24'3 2.6
2016-Apr-10 04:33N 50°51' W 001°21'1111.0
2016-Apr-10 03:33N 50°45' W 001°07'1414.0
2016-Apr-10 02:33N 50°37' W 000°48'1212.4
2016-Apr-10 01:33N 50°35' W 000°29'1412.7
2016-Apr-10 00:29N 50°33' W 000°08'1212.7
2016-Apr-09 23:33N 50°34' E 000°10'1312.9
2016-Apr-09 22:33N 50°36' E 000°30'2612.5
2016-Apr-09 20:28N 50°50' E 001°05'1212.8
2016-Apr-09 19:33N 50°57' E 001°21'1313.5
2016-Apr-09 18:33N 51°07' E 001°36'1312.8
2016-Apr-09 17:33N 51°16' E 001°50'1212.4
2016-Apr-09 16:34N 51°26' E 002°01'1212.2
2016-Apr-09 15:33N 51°21' E 002°19'1312.9
2016-Apr-09 14:33N 51°23' E 002°40'1212.6
2016-Apr-09 13:33N 51°24' E 002°60'9 9.1
2016-Apr-09 12:33N 51°20' E 003°13'0 0.0
2016-Apr-09 11:34N 51°20' E 003°13'1 1.3
2016-Apr-09 10:32N 51°19' E 003°14'0 0.0
2016-Apr-09 09:32N 51°19' E 003°14'0 0.0
2016-Apr-09 08:26N 51°19' E 003°14'0 0.0
2016-Apr-09 07:32N 51°19' E 003°14'0 0.0
2016-Apr-09 06:32N 51°19' E 003°14'0 0.0
2016-Apr-09 05:32N 51°19' E 003°14'0 0.0
2016-Apr-09 04:29N 51°19' E 003°14'0 0.0
2016-Apr-09 03:32N 51°19' E 003°14'0 0.0
2016-Apr-09 02:32N 51°19' E 003°14'0 0.0
2016-Apr-09 01:32N 51°19' E 003°14'0 0.0
2016-Apr-09 00:32N 51°19' E 003°14'0 0.0
2016-Apr-08 23:32N 51°19' E 003°14'0 0.0
2016-Apr-08 22:32N 51°19' E 003°14'0 0.0
2016-Apr-08 21:32N 51°19' E 003°14'0 0.0
2016-Apr-08 20:32N 51°19' E 003°14'0 0.0
2016-Apr-08 19:32N 51°19' E 003°14'0 0.0
2016-Apr-08 18:32N 51°19' E 003°14'0 0.0
2016-Apr-08 17:32N 51°19' E 003°14'0 0.0
2016-Apr-08 16:32N 51°19' E 003°14'0 0.0
2016-Apr-08 15:32N 51°19' E 003°14'0 0.0
2016-Apr-08 14:32N 51°19' E 003°14'0 0.0
2016-Apr-08 13:32N 51°19' E 003°14'0 0.0
2016-Apr-08 12:32N 51°19' E 003°14'0 0.0
2016-Apr-08 11:32N 51°19' E 003°14'0 0.0
2016-Apr-08 10:32N 51°19' E 003°14'0 0.0
2016-Apr-08 09:32N 51°19' E 003°14'0 0.0
2016-Apr-08 08:32N 51°19' E 003°14'0 0.0
2016-Apr-08 07:32N 51°19' E 003°14'0 0.0
2016-Apr-08 06:32N 51°19' E 003°14'0 0.0
2016-Apr-08 05:32N 51°19' E 003°14'0 0.0
2016-Apr-08 04:32N 51°19' E 003°14'0 0.0
2016-Apr-08 03:32N 51°19' E 003°14'0 0.0
2016-Apr-08 02:29N 51°19' E 003°14'0 0.0
2016-Apr-08 01:32N 51°19' E 003°14'0 0.0
2016-Apr-08 00:32N 51°19' E 003°14'0 0.0
2016-Apr-07 23:32N 51°19' E 003°14'  
Track history (hours):
 
Tides and Currents Weather Stations Pressure Air Temp Water Temp Dewpoint Dewpoint Depression Visibility Wind Speed Wind Dir Waves Ship Positions

Oberon

Last reported at 2016-Apr-17 23:10 UTC. Time now 2016-Apr-29 23:33 UTC.
Position N 13°44' W 017°49'.
Warning: this ship's position is 12 days out of date.

Length 232 m; draft 9.8 m.

Type: Cargo ship. MMSI: 266283000.

Date/timePositionNaut miles runAvg speedWind from/ knotsBaromVisibWave heightAir tempDewpointWater temp
2016-Apr-17 23:10N 13°44' W 017°49'1317.4
2016-Apr-17 22:24N 13°57' W 017°50'6617.2
2016-Apr-17 18:34N 15°03' W 017°53'1817.6
2016-Apr-17 17:34N 15°21' W 017°54'1717.4
2016-Apr-17 16:33N 15°38' W 017°55'72617.2
2016-Apr-15 22:18N 27°39' W 016°24'4916.4
2016-Apr-15 19:18N 28°23' W 015°58'1317.1
2016-Apr-15 18:33N 28°33' W 015°49'1616.4
2016-Apr-15 17:33N 28°48' W 015°41'1716.6
2016-Apr-15 16:33N 29°04' W 015°37'1716.3
2016-Apr-15 15:32N 29°20' W 015°31'1716.7
2016-Apr-15 14:33N 29°35' W 015°25'1816.8
2016-Apr-15 13:30N 29°52' W 015°19'1616.4
2016-Apr-15 12:31N 30°08' W 015°14'  
2016-Apr-12 20:28N 43°50' W 006°25'1516.5
2016-Apr-12 19:33N 43°48' W 006°05'2016.6
2016-Apr-12 18:22N 43°46' W 005°37'1316.4
2016-Apr-12 17:33N 43°44' W 005°19'1616.3
2016-Apr-12 16:33N 43°42' W 004°57'352 9.8
2016-Apr-11 04:31N 49°33' W 004°13'1819.1
2016-Apr-11 03:33N 49°42' W 003°48'2020.2
2016-Apr-11 02:33N 49°52' W 003°21'2019.9
2016-Apr-11 01:33N 50°01' W 002°53'6616.4
2016-Apr-10 21:33N 50°27' W 001°19'1514.7
2016-Apr-10 20:33N 50°35' W 000°60'1010.2
2016-Apr-10 19:33N 50°45' W 001°06'1111.1
2016-Apr-10 18:33N 50°51' W 001°20'3 3.3
2016-Apr-10 17:33N 50°53' W 001°24'0 0.0
2016-Apr-10 16:31N 50°53' W 001°24'0 0.0
2016-Apr-10 15:31N 50°53' W 001°24'0 0.0
2016-Apr-10 14:31N 50°53' W 001°24'0 0.0
2016-Apr-10 13:31N 50°53' W 001°24'0 0.0
2016-Apr-10 12:31N 50°53' W 001°24'0 0.0
2016-Apr-10 11:31N 50°53' W 001°24'0 0.0
2016-Apr-10 10:31N 50°53' W 001°24'0 0.0
2016-Apr-10 09:31N 50°53' W 001°24'0 0.0
2016-Apr-10 08:31N 50°53' W 001°24'0 0.0
2016-Apr-10 07:31N 50°53' W 001°24'0 0.0
2016-Apr-10 06:31N 50°53' W 001°24'0 0.0
2016-Apr-10 05:31N 50°53' W 001°24'3 2.6
2016-Apr-10 04:33N 50°51' W 001°21'1111.0
2016-Apr-10 03:33N 50°45' W 001°07'1414.0
2016-Apr-10 02:33N 50°37' W 000°48'1212.4
2016-Apr-10 01:33N 50°35' W 000°29'1412.7
2016-Apr-10 00:29N 50°33' W 000°08'1212.7
2016-Apr-09 23:33N 50°34' E 000°10'1312.9
2016-Apr-09 22:33N 50°36' E 000°30'2612.5
2016-Apr-09 20:28N 50°50' E 001°05'1212.8
2016-Apr-09 19:33N 50°57' E 001°21'1313.5
2016-Apr-09 18:33N 51°07' E 001°36'1312.8
2016-Apr-09 17:33N 51°16' E 001°50'1212.4
2016-Apr-09 16:34N 51°26' E 002°01'1212.2
2016-Apr-09 15:33N 51°21' E 002°19'1312.9
2016-Apr-09 14:33N 51°23' E 002°40'1212.6
2016-Apr-09 13:33N 51°24' E 002°60'9 9.1
2016-Apr-09 12:33N 51°20' E 003°13'0 0.0
2016-Apr-09 11:34N 51°20' E 003°13'1 1.3
2016-Apr-09 10:32N 51°19' E 003°14'0 0.0
2016-Apr-09 09:32N 51°19' E 003°14'0 0.0
2016-Apr-09 08:26N 51°19' E 003°14'0 0.0
2016-Apr-09 07:32N 51°19' E 003°14'0 0.0
2016-Apr-09 06:32N 51°19' E 003°14'0 0.0
2016-Apr-09 05:32N 51°19' E 003°14'0 0.0
2016-Apr-09 04:29N 51°19' E 003°14'0 0.0
2016-Apr-09 03:32N 51°19' E 003°14'0 0.0
2016-Apr-09 02:32N 51°19' E 003°14'0 0.0
2016-Apr-09 01:32N 51°19' E 003°14'0 0.0
2016-Apr-09 00:32N 51°19' E 003°14'0 0.0
2016-Apr-08 23:32N 51°19' E 003°14'0 0.0
2016-Apr-08 22:32N 51°19' E 003°14'0 0.0
2016-Apr-08 21:32N 51°19' E 003°14'0 0.0
2016-Apr-08 20:32N 51°19' E 003°14'0 0.0
2016-Apr-08 19:32N 51°19' E 003°14'0 0.0
2016-Apr-08 18:32N 51°19' E 003°14'0 0.0
2016-Apr-08 17:32N 51°19' E 003°14'0 0.0
2016-Apr-08 16:32N 51°19' E 003°14'0 0.0
2016-Apr-08 15:32N 51°19' E 003°14'0 0.0
2016-Apr-08 14:32N 51°19' E 003°14'0 0.0
2016-Apr-08 13:32N 51°19' E 003°14'0 0.0
2016-Apr-08 12:32N 51°19' E 003°14'0 0.0
2016-Apr-08 11:32N 51°19' E 003°14'0 0.0
2016-Apr-08 10:32N 51°19' E 003°14'0 0.0
2016-Apr-08 09:32N 51°19' E 003°14'0 0.0
2016-Apr-08 08:32N 51°19' E 003°14'0 0.0
2016-Apr-08 07:32N 51°19' E 003°14'0 0.0
2016-Apr-08 06:32N 51°19' E 003°14'0 0.0
2016-Apr-08 05:32N 51°19' E 003°14'0 0.0
2016-Apr-08 04:32N 51°19' E 003°14'0 0.0
2016-Apr-08 03:32N 51°19' E 003°14'0 0.0
2016-Apr-08 02:29N 51°19' E 003°14'0 0.0
2016-Apr-08 01:32N 51°19' E 003°14'0 0.0
2016-Apr-08 00:32N 51°19' E 003°14'0 0.0
2016-Apr-07 23:32N 51°19' E 003°14'  

Dump ship's entire track history